createdAt,value
2023-03-18T00:02:08.068Z,8.84
2023-03-18T00:04:35.476Z,8.82
2023-03-18T00:07:02.780Z,8.78
2023-03-18T00:09:30.189Z,8.71
2023-03-18T00:11:57.992Z,8.74
2023-03-18T00:14:26.821Z,8.72
2023-03-18T00:16:54.140Z,8.68
2023-03-18T00:19:21.402Z,8.61
2023-03-18T00:21:48.948Z,8.57
2023-03-18T00:24:16.718Z,8.61
2023-03-18T00:26:44.498Z,8.59
2023-03-18T00:29:12.202Z,8.56
2023-03-18T00:31:40.902Z,8.56
2023-03-18T00:34:10.325Z,8.54
2023-03-18T00:36:39.902Z,8.57
2023-03-18T00:39:07.311Z,8.57
2023-03-18T00:41:36.385Z,8.59
2023-03-18T00:44:04.287Z,8.49
2023-03-18T00:46:32.622Z,8.53
2023-03-18T00:49:02.223Z,8.54
2023-03-18T00:51:30.233Z,8.57
2023-03-18T00:53:59.404Z,8.61
2023-03-18T00:56:27.670Z,8.60
2023-03-18T00:58:55.281Z,8.61
2023-03-18T01:01:23.126Z,8.62
2023-03-18T01:03:50.920Z,8.57
2023-03-18T01:06:22.573Z,8.57
2023-03-18T01:08:50.666Z,8.61
2023-03-18T01:11:18.296Z,8.57
2023-03-18T01:13:46.320Z,8.62
2023-03-18T01:16:14.194Z,8.53
2023-03-18T01:18:41.623Z,8.50
2023-03-18T01:21:09.327Z,8.53
2023-03-18T01:23:38.316Z,8.59
2023-03-18T01:26:06.588Z,8.54
2023-03-18T01:28:34.171Z,8.51
2023-03-18T01:31:01.437Z,8.48
2023-03-18T01:33:29.800Z,8.48
2023-03-18T01:35:57.814Z,8.45
2023-03-18T01:38:25.937Z,8.42
2023-03-18T01:40:54.660Z,8.39
2023-03-18T01:43:23.930Z,8.39
2023-03-18T01:45:52.454Z,8.38
2023-03-18T01:48:20.981Z,8.31
2023-03-18T01:50:50.143Z,8.33
2023-03-18T01:53:18.881Z,8.25
2023-03-18T01:55:47.038Z,8.21
2023-03-18T01:58:18.884Z,8.26
2023-03-18T02:00:49.912Z,8.21
2023-03-18T02:03:17.225Z,8.20
2023-03-18T02:05:44.573Z,8.25
2023-03-18T02:08:11.823Z,8.24
2023-03-18T02:10:39.124Z,8.26
2023-03-18T02:13:08.024Z,8.23
2023-03-18T02:15:38.803Z,8.25
2023-03-18T02:18:08.665Z,8.19
2023-03-18T02:20:40.765Z,8.19
2023-03-18T02:23:13.589Z,8.16
2023-03-18T02:25:45.459Z,8.20
2023-03-18T02:28:15.794Z,8.21
2023-03-18T02:30:44.779Z,8.22
2023-03-18T02:33:12.571Z,8.19
2023-03-18T02:35:39.907Z,8.23
2023-03-18T02:38:07.247Z,8.19
2023-03-18T02:40:36.150Z,8.19
2023-03-18T02:43:18.022Z,8.19
2023-03-18T02:45:50.785Z,8.09
2023-03-18T02:48:19.415Z,8.10
2023-03-18T02:50:47.413Z,8.04
2023-03-18T02:53:15.165Z,8.09
2023-03-18T02:55:42.532Z,8.04
2023-03-18T02:58:10.097Z,7.97
2023-03-18T03:00:38.852Z,8.10
2023-03-18T03:03:06.229Z,8.02
2023-03-18T03:05:34.736Z,7.94
2023-03-18T03:08:02.412Z,8.04
2023-03-18T03:10:29.919Z,7.94
2023-03-18T03:12:57.831Z,7.93
2023-03-18T03:15:25.179Z,7.92
2023-03-18T03:17:54.495Z,7.98
2023-03-18T03:20:22.309Z,7.98
2023-03-18T03:22:49.629Z,7.99
2023-03-18T03:25:16.951Z,8.01
2023-03-18T03:27:44.572Z,7.98
2023-03-18T03:30:13.563Z,7.92
2023-03-18T03:32:40.995Z,7.95
2023-03-18T03:35:12.269Z,7.94
2023-03-18T03:37:39.547Z,7.92
2023-03-18T03:40:08.160Z,7.82
2023-03-18T03:42:35.444Z,7.86
2023-03-18T03:45:03.364Z,7.86
2023-03-18T03:47:30.673Z,7.89
2023-03-18T03:49:58.061Z,7.78
2023-03-18T03:52:26.744Z,7.83
2023-03-18T03:54:54.939Z,7.84
2023-03-18T03:57:23.643Z,7.81
2023-03-18T03:59:51.156Z,7.82
2023-03-18T04:02:19.058Z,7.90
2023-03-18T04:04:46.953Z,7.81
2023-03-18T04:07:15.421Z,7.84
2023-03-18T04:09:44.004Z,7.79
2023-03-18T04:12:11.922Z,7.73
2023-03-18T04:14:39.341Z,7.76
2023-03-18T04:17:07.860Z,7.76
2023-03-18T04:19:35.157Z,7.75
2023-03-18T04:22:03.583Z,7.71
2023-03-18T04:24:30.850Z,7.68
2023-03-18T04:26:59.793Z,7.65
2023-03-18T04:29:27.089Z,7.61
2023-03-18T04:31:54.616Z,7.53
2023-03-18T04:34:22.216Z,7.57
2023-03-18T04:36:49.631Z,7.44
2023-03-18T04:39:16.958Z,7.53
2023-03-18T04:41:44.222Z,7.45
2023-03-18T04:44:13.345Z,7.53
2023-03-18T04:46:40.768Z,7.41
2023-03-18T04:49:08.644Z,7.44
2023-03-18T04:51:36.500Z,7.42
2023-03-18T04:54:04.101Z,7.36
2023-03-18T04:56:32.173Z,7.36
2023-03-18T04:58:59.517Z,7.36
2023-03-18T05:01:28.318Z,7.41
2023-03-18T05:03:55.982Z,7.43
2023-03-18T05:06:24.687Z,7.36
2023-03-18T05:08:52.027Z,7.28
2023-03-18T05:11:19.695Z,7.29
2023-03-18T05:13:46.969Z,7.34
2023-03-18T05:16:15.244Z,7.23
2023-03-18T05:18:44.659Z,7.28
2023-03-18T05:21:12.322Z,7.19
2023-03-18T05:23:39.600Z,7.19
2023-03-18T05:26:06.914Z,7.23
2023-03-18T05:28:34.980Z,7.20
2023-03-18T05:31:02.297Z,7.21
2023-03-18T05:33:29.645Z,7.21
2023-03-18T05:35:58.277Z,7.20
2023-03-18T05:38:25.624Z,7.22
2023-03-18T05:40:53.356Z,7.23
2023-03-18T05:43:21.700Z,7.20
2023-03-18T05:45:50.101Z,7.24
2023-03-18T05:48:17.527Z,7.15
2023-03-18T05:50:45.041Z,7.11
2023-03-18T05:53:16.118Z,7.14
2023-03-18T05:55:44.241Z,7.16
2023-03-18T05:58:12.571Z,7.18
2023-03-18T06:00:40.266Z,7.19
2023-03-18T06:03:07.564Z,7.08
2023-03-18T06:05:35.825Z,7.17
2023-03-18T06:08:03.216Z,7.23
2023-03-18T06:10:32.144Z,7.20
2023-03-18T06:12:59.418Z,7.22
2023-03-18T06:15:27.384Z,7.32
2023-03-18T06:17:54.680Z,7.38
2023-03-18T06:20:22.400Z,7.32
2023-03-18T06:22:50.124Z,7.35
2023-03-18T06:25:18.878Z,7.40
2023-03-18T06:27:47.806Z,7.47
2023-03-18T06:30:15.271Z,7.44
2023-03-18T06:32:42.715Z,7.56
2023-03-18T06:35:10.502Z,7.56
2023-03-18T06:37:37.852Z,7.63
2023-03-18T06:40:06.373Z,7.81
2023-03-18T06:42:33.649Z,7.80
2023-03-18T06:45:02.226Z,7.93
2023-03-18T06:47:29.536Z,7.96
2023-03-18T06:49:57.070Z,7.95
2023-03-18T06:52:24.371Z,7.98
2023-03-18T06:54:51.957Z,7.84
2023-03-18T06:57:20.309Z,7.84
2023-03-18T06:59:47.954Z,7.88
2023-03-18T07:02:16.549Z,7.89
2023-03-18T07:04:43.916Z,8.07
2023-03-18T07:07:11.669Z,8.04
2023-03-18T07:09:39.014Z,8.17
2023-03-18T07:12:06.656Z,8.35
2023-03-18T07:14:33.924Z,8.44
2023-03-18T07:17:02.758Z,8.61
2023-03-18T07:19:32.344Z,8.64
2023-03-18T07:21:59.725Z,8.74
2023-03-18T07:24:28.387Z,8.96
2023-03-18T07:26:55.770Z,9.24
2023-03-18T07:29:23.369Z,9.58
2023-03-18T07:31:51.150Z,9.56
2023-03-18T07:34:19.299Z,9.64
2023-03-18T07:36:48.054Z,9.86
2023-03-18T07:39:15.904Z,9.95
2023-03-18T07:41:43.620Z,10.25
2023-03-18T07:44:10.926Z,10.38
2023-03-18T07:46:38.338Z,10.42
2023-03-18T07:49:05.649Z,10.61
2023-03-18T07:51:33.027Z,10.67
2023-03-18T07:54:01.944Z,10.85
2023-03-18T07:56:29.236Z,10.54
2023-03-18T07:58:56.537Z,10.53
2023-03-18T08:01:23.988Z,10.48
2023-03-18T08:03:51.694Z,10.41
2023-03-18T08:06:20.598Z,10.41
2023-03-18T08:08:49.262Z,10.46
2023-03-18T08:11:18.461Z,10.59
2023-03-18T08:13:45.760Z,10.57
2023-03-18T08:16:13.465Z,10.65
2023-03-18T08:18:41.718Z,10.95
2023-03-18T08:21:09.496Z,11.10
2023-03-18T08:23:36.840Z,11.21
2023-03-18T08:26:04.396Z,11.27
2023-03-18T08:28:33.062Z,11.28
2023-03-18T08:31:01.166Z,11.39
2023-03-18T08:33:28.645Z,11.48
2023-03-18T08:35:57.801Z,11.62
2023-03-18T08:38:25.209Z,11.69
2023-03-18T08:40:52.744Z,11.68
2023-03-18T08:43:22.106Z,11.72
2023-03-18T08:45:53.729Z,11.67
2023-03-18T08:48:21.705Z,11.89
2023-03-18T08:50:49.138Z,11.88
2023-03-18T08:53:16.957Z,11.88
2023-03-18T08:55:44.514Z,11.97
2023-03-18T08:58:11.814Z,11.79
2023-03-18T09:00:40.556Z,12.02
2023-03-18T09:03:10.038Z,12.16
2023-03-18T09:05:37.695Z,12.38
2023-03-18T09:08:05.305Z,12.65
2023-03-18T09:10:33.232Z,12.92
2023-03-18T09:13:00.873Z,12.75
2023-03-18T09:15:28.296Z,12.90
2023-03-18T09:18:10.441Z,13.11
2023-03-18T09:20:40.108Z,13.18
2023-03-18T09:23:07.648Z,13.24
2023-03-18T09:25:35.388Z,13.13
2023-03-18T09:28:02.885Z,13.28
2023-03-18T09:30:30.649Z,13.56
2023-03-18T09:32:58.098Z,13.48
2023-03-18T09:35:25.447Z,13.71
2023-03-18T09:37:54.064Z,13.52
2023-03-18T09:40:25.993Z,13.49
2023-03-18T09:43:00.451Z,14.07
2023-03-18T09:45:31.219Z,13.92
2023-03-18T09:48:05.260Z,13.93
2023-03-18T09:50:38.048Z,14.01
2023-03-18T09:53:13.794Z,14.00
2023-03-18T09:55:46.448Z,14.40
2023-03-18T09:58:19.333Z,14.31
2023-03-18T10:00:47.478Z,14.24
2023-03-18T10:03:18.667Z,14.51
2023-03-18T10:05:49.936Z,14.45
2023-03-18T10:08:21.503Z,14.32
2023-03-18T10:10:49.830Z,14.37
2023-03-18T10:13:20.424Z,14.29
2023-03-18T10:15:49.919Z,14.49
2023-03-18T10:18:22.334Z,14.34
2023-03-18T10:20:53.958Z,14.60
2023-03-18T10:23:28.505Z,14.64
2023-03-18T10:25:58.895Z,14.57
2023-03-18T10:28:43.925Z,14.86
2023-03-18T10:31:17.197Z,14.91
2023-03-18T10:33:47.786Z,15.28
2023-03-18T10:36:19.641Z,15.42
2023-03-18T10:38:49.397Z,15.35
2023-03-18T10:41:19.262Z,15.28
2023-03-18T10:43:48.465Z,15.31
2023-03-18T10:46:18.382Z,14.99
2023-03-18T10:48:47.121Z,15.03
2023-03-18T10:51:18.459Z,14.93
2023-03-18T10:53:49.706Z,15.25
2023-03-18T10:56:18.994Z,15.13
2023-03-18T10:58:47.111Z,15.28
2023-03-18T11:01:19.054Z,15.40
2023-03-18T11:03:51.611Z,15.40
2023-03-18T11:06:22.303Z,15.28
2023-03-18T11:08:49.912Z,15.27
2023-03-18T11:11:29.344Z,15.36
2023-03-18T11:13:57.852Z,15.34
2023-03-18T11:16:30.688Z,15.31
2023-03-18T11:18:59.176Z,15.20
2023-03-18T11:21:28.655Z,14.99
2023-03-18T11:24:10.383Z,15.29
2023-03-18T11:26:46.999Z,15.48
2023-03-18T11:29:17.787Z,15.36
2023-03-18T11:31:54.650Z,15.29
2023-03-18T11:34:22.329Z,15.17
2023-03-18T11:36:59.060Z,15.37
2023-03-18T11:39:27.334Z,15.38
2023-03-18T11:41:55.995Z,15.48
2023-03-18T11:44:29.619Z,15.70
2023-03-18T11:47:00.205Z,15.72
2023-03-18T11:49:28.723Z,15.65
2023-03-18T11:52:01.273Z,15.63
2023-03-18T11:54:51.395Z,15.41
2023-03-18T11:57:23.368Z,15.40
2023-03-18T11:59:55.740Z,15.36
2023-03-18T12:02:43.551Z,15.28
2023-03-18T12:05:18.030Z,15.23
2023-03-18T12:07:53.005Z,15.56
2023-03-18T12:10:25.022Z,15.43
2023-03-18T12:12:59.537Z,15.68
2023-03-18T12:15:36.316Z,15.68
2023-03-18T12:18:09.732Z,15.58
2023-03-18T12:20:49.470Z,15.52
2023-03-18T12:23:41.189Z,15.32
2023-03-18T12:26:09.578Z,15.16
2023-03-18T12:28:48.757Z,15.25
2023-03-18T12:31:35.222Z,15.40
2023-03-18T12:34:03.754Z,15.51
2023-03-18T12:36:36.581Z,15.45
2023-03-18T12:39:20.120Z,15.38
2023-03-18T12:41:52.963Z,15.56
2023-03-18T12:44:27.685Z,15.34
2023-03-18T12:46:58.352Z,15.31
2023-03-18T12:49:27.093Z,15.42
2023-03-18T12:51:57.153Z,15.20
2023-03-18T12:54:26.783Z,15.22
2023-03-18T12:56:56.560Z,15.28
2023-03-18T12:59:31.907Z,15.28
2023-03-18T13:02:05.151Z,15.28
2023-03-18T13:04:35.893Z,15.25
2023-03-18T13:07:06.073Z,15.32
2023-03-18T13:09:35.742Z,15.24
2023-03-18T13:12:07.410Z,15.33
2023-03-18T13:14:44.622Z,15.24
2023-03-18T13:17:14.431Z,15.42
2023-03-18T13:19:42.923Z,15.63
2023-03-18T13:22:20.645Z,15.63
2023-03-18T13:24:56.603Z,15.55
2023-03-18T13:27:33.012Z,15.69
2023-03-18T13:30:06.150Z,15.72
2023-03-18T13:32:42.607Z,15.84
2023-03-18T13:35:30.854Z,15.79
2023-03-18T13:38:08.541Z,15.72
2023-03-18T13:40:46.325Z,15.74
2023-03-18T13:43:16.016Z,15.77
2023-03-18T13:45:46.460Z,15.57
2023-03-18T13:48:16.568Z,15.60
2023-03-18T13:50:45.106Z,15.74
2023-03-18T13:53:21.525Z,15.64
2023-03-18T13:55:54.028Z,15.83
2023-03-18T13:58:22.815Z,15.92
2023-03-18T14:01:09.325Z,15.84
2023-03-18T14:03:51.981Z,15.83
2023-03-18T14:06:22.554Z,15.88
2023-03-18T14:08:51.052Z,15.86
2023-03-18T14:11:49.902Z,15.92
2023-03-18T14:14:36.054Z,15.77
2023-03-18T14:17:04.719Z,15.71
2023-03-18T14:19:32.828Z,15.65
2023-03-18T14:22:08.012Z,15.54
2023-03-18T14:24:35.459Z,15.36
2023-03-18T14:27:18.175Z,15.41
2023-03-18T14:29:47.222Z,15.44
2023-03-18T14:32:38.342Z,15.43
2023-03-18T14:35:27.708Z,15.32
2023-03-18T14:38:01.874Z,15.36
2023-03-18T14:40:29.965Z,15.38
2023-03-18T14:42:59.485Z,15.26
2023-03-18T14:45:27.517Z,15.25
2023-03-18T14:47:55.876Z,15.16
2023-03-18T14:50:28.617Z,15.14
2023-03-18T14:53:00.561Z,15.20
2023-03-18T14:55:31.820Z,15.08
2023-03-18T14:57:59.250Z,15.13
2023-03-18T15:00:26.533Z,15.10
2023-03-18T15:03:00.956Z,15.10
2023-03-18T15:05:32.441Z,15.15
2023-03-18T15:08:00.332Z,15.16
2023-03-18T15:10:30.802Z,15.08
2023-03-18T15:12:58.826Z,15.12
2023-03-18T15:15:26.179Z,15.08
2023-03-18T15:17:53.966Z,15.03
2023-03-18T15:20:22.658Z,15.03
2023-03-18T15:22:50.346Z,14.98
2023-03-18T15:25:19.137Z,14.96
2023-03-18T15:27:48.188Z,14.94
2023-03-18T15:30:26.472Z,14.89
2023-03-18T15:32:56.551Z,14.95
2023-03-18T15:35:25.385Z,14.88
2023-03-18T15:38:05.475Z,14.89
2023-03-18T15:40:36.155Z,14.78
2023-03-18T15:43:13.570Z,14.83
2023-03-18T15:45:41.857Z,14.80
2023-03-18T15:48:19.386Z,14.80
2023-03-18T15:50:52.793Z,14.75
2023-03-18T15:53:22.567Z,14.67
2023-03-18T15:55:50.868Z,14.65
2023-03-18T15:58:22.830Z,14.63
2023-03-18T16:00:51.005Z,14.53
2023-03-18T16:03:19.553Z,14.43
2023-03-18T16:05:46.882Z,14.24
2023-03-18T16:08:14.953Z,14.25
2023-03-18T16:10:42.542Z,14.16
2023-03-18T16:13:11.098Z,14.13
2023-03-18T16:15:39.701Z,14.12
2023-03-18T16:18:07.080Z,14.10
2023-03-18T16:20:34.353Z,14.14
2023-03-18T16:23:01.613Z,14.17
2023-03-18T16:25:29.226Z,14.15
2023-03-18T16:27:57.383Z,14.12
2023-03-18T16:30:25.979Z,14.10
2023-03-18T16:32:55.051Z,14.14
2023-03-18T16:35:23.161Z,14.07
2023-03-18T16:37:50.493Z,14.12
2023-03-18T16:40:18.559Z,14.08
2023-03-18T16:42:47.850Z,14.04
2023-03-18T16:45:16.066Z,13.96
2023-03-18T16:47:44.407Z,13.81
2023-03-18T16:50:17.344Z,13.75
2023-03-18T16:52:44.680Z,13.65
2023-03-18T16:55:16.221Z,13.50
2023-03-18T16:57:44.701Z,13.54
2023-03-18T17:00:19.318Z,13.45
2023-03-18T17:02:47.094Z,13.29
2023-03-18T17:05:15.952Z,13.20
2023-03-18T17:07:45.271Z,13.21
2023-03-18T17:10:13.445Z,13.16
2023-03-18T17:12:41.284Z,13.11
2023-03-18T17:15:11.961Z,13.19
2023-03-18T17:17:39.696Z,13.11
2023-03-18T17:20:16.143Z,13.06
2023-03-18T17:22:45.090Z,12.97
2023-03-18T17:25:12.663Z,12.80
2023-03-18T17:27:42.522Z,12.81
2023-03-18T17:30:16.342Z,12.73
2023-03-18T17:32:43.902Z,12.63
2023-03-18T17:35:14.102Z,12.53
2023-03-18T17:37:41.420Z,12.51
2023-03-18T17:40:12.103Z,12.44
2023-03-18T17:42:39.942Z,12.45
2023-03-18T17:45:08.732Z,12.33
2023-03-18T17:47:36.702Z,12.21
2023-03-18T17:50:05.421Z,12.21
2023-03-18T17:52:33.910Z,12.23
2023-03-18T17:55:01.568Z,12.17
2023-03-18T17:57:30.219Z,12.10
2023-03-18T17:59:57.543Z,12.07
2023-03-18T18:02:24.853Z,11.98
2023-03-18T18:04:52.279Z,11.99
2023-03-18T18:07:20.345Z,12.03
2023-03-18T18:09:49.149Z,11.89
2023-03-18T18:12:18.116Z,11.83
2023-03-18T18:14:47.379Z,11.78
2023-03-18T18:17:15.462Z,11.76
2023-03-18T18:19:43.910Z,11.73
2023-03-18T18:22:15.425Z,11.75
2023-03-18T18:24:43.081Z,11.65
2023-03-18T18:27:11.528Z,11.65
2023-03-18T18:29:38.810Z,11.45
2023-03-18T18:32:07.507Z,11.46
2023-03-18T18:34:35.702Z,11.46
2023-03-18T18:37:03.013Z,11.35
2023-03-18T18:39:30.299Z,11.30
2023-03-18T18:41:57.570Z,11.28
2023-03-18T18:44:26.432Z,11.28
2023-03-18T18:46:53.848Z,11.23
2023-03-18T18:49:23.943Z,11.20
2023-03-18T18:51:53.127Z,11.19
2023-03-18T18:54:22.374Z,11.10
2023-03-18T18:56:49.720Z,11.11
2023-03-18T18:59:22.201Z,11.12
2023-03-18T19:01:50.462Z,11.12
2023-03-18T19:04:18.066Z,11.16
2023-03-18T19:06:47.929Z,11.01
2023-03-18T19:09:18.047Z,11.00
2023-03-18T19:11:45.430Z,10.83
2023-03-18T19:14:18.095Z,10.92
2023-03-18T19:16:46.293Z,10.98
2023-03-18T19:19:14.923Z,10.98
2023-03-18T19:21:42.991Z,10.84
2023-03-18T19:24:25.550Z,10.89
2023-03-18T19:26:53.282Z,10.92
2023-03-18T19:29:21.061Z,10.85
2023-03-18T19:31:48.846Z,10.91
2023-03-18T19:34:16.491Z,10.82
2023-03-18T19:36:44.018Z,10.80
2023-03-18T19:39:14.706Z,10.80
2023-03-18T19:41:43.360Z,10.76
2023-03-18T19:44:16.025Z,10.83
2023-03-18T19:46:43.518Z,10.86
2023-03-18T19:49:13.494Z,10.79
2023-03-18T19:51:41.469Z,10.74
2023-03-18T19:54:19.627Z,10.77
2023-03-18T19:56:49.070Z,10.72
2023-03-18T19:59:20.894Z,10.76
2023-03-18T20:01:49.016Z,10.75
2023-03-18T20:04:17.189Z,10.77
2023-03-18T20:06:45.221Z,10.68
2023-03-18T20:09:12.632Z,10.61
2023-03-18T20:11:39.910Z,10.56
2023-03-18T20:14:19.514Z,10.55
2023-03-18T20:16:47.149Z,10.48
2023-03-18T20:19:14.693Z,10.62
2023-03-18T20:21:42.419Z,10.54
2023-03-18T20:24:12.675Z,10.57
2023-03-18T20:26:40.027Z,10.56
2023-03-18T20:29:15.737Z,10.63
2023-03-18T20:31:43.053Z,10.60
2023-03-18T20:34:10.573Z,10.55
2023-03-18T20:36:37.962Z,10.59
2023-03-18T20:39:06.226Z,10.57
2023-03-18T20:41:36.349Z,10.64
2023-03-18T20:44:04.028Z,10.56
2023-03-18T20:46:32.893Z,10.62
2023-03-18T20:49:00.182Z,10.63
2023-03-18T20:51:30.161Z,10.63
2023-03-18T20:53:57.920Z,10.61
2023-03-18T20:56:26.125Z,10.52
2023-03-18T20:58:53.893Z,10.55
2023-03-18T21:01:22.615Z,10.55
2023-03-18T21:03:51.728Z,10.55
2023-03-18T21:06:19.180Z,10.59
2023-03-18T21:08:46.512Z,10.56
2023-03-18T21:11:19.684Z,10.50
2023-03-18T21:13:47.182Z,10.45
2023-03-18T21:16:15.605Z,10.51
2023-03-18T21:18:45.422Z,10.55
2023-03-18T21:21:18.707Z,10.56
2023-03-18T21:23:46.055Z,10.58
2023-03-18T21:26:13.362Z,10.60
2023-03-18T21:28:40.726Z,10.54
2023-03-18T21:31:17.643Z,10.49
2023-03-18T21:33:46.484Z,10.54
2023-03-18T21:36:13.929Z,10.47
2023-03-18T21:38:42.598Z,10.49
2023-03-18T21:41:18.602Z,10.54
2023-03-18T21:43:46.707Z,10.50
2023-03-18T21:46:15.175Z,10.58
2023-03-18T21:48:42.534Z,10.52
2023-03-18T21:51:22.134Z,10.52
2023-03-18T21:53:56.738Z,10.63
2023-03-18T21:56:24.053Z,10.61
2023-03-18T21:58:51.365Z,10.60
2023-03-18T22:01:19.763Z,10.61
2023-03-18T22:03:48.007Z,10.59
2023-03-18T22:06:17.096Z,10.61
2023-03-18T22:08:45.056Z,10.56
2023-03-18T22:11:16.992Z,10.60
2023-03-18T22:13:44.695Z,10.64
2023-03-18T22:16:13.499Z,10.60
2023-03-18T22:18:40.831Z,10.58
2023-03-18T22:21:20.396Z,10.64
2023-03-18T22:23:47.744Z,10.62
2023-03-18T22:26:16.947Z,10.58
2023-03-18T22:28:44.634Z,10.63
2023-03-18T22:31:17.967Z,10.60
2023-03-18T22:33:46.360Z,10.64
2023-03-18T22:36:13.934Z,10.57
2023-03-18T22:38:41.221Z,10.63
2023-03-18T22:41:14.738Z,10.66
2023-03-18T22:43:43.360Z,10.60
2023-03-18T22:46:11.526Z,10.64
2023-03-18T22:48:39.291Z,10.54
2023-03-18T22:51:06.933Z,10.62
2023-03-18T22:53:36.335Z,10.57
2023-03-18T22:56:07.668Z,10.53
2023-03-18T22:58:34.959Z,10.54
2023-03-18T23:01:04.136Z,10.48
2023-03-18T23:03:32.238Z,10.50
2023-03-18T23:05:59.993Z,10.40
2023-03-18T23:08:27.991Z,10.42
2023-03-18T23:10:56.482Z,10.32
2023-03-18T23:13:26.939Z,10.32
2023-03-18T23:15:54.342Z,10.32
2023-03-18T23:18:23.559Z,10.25
2023-03-18T23:20:51.929Z,10.22
2023-03-18T23:23:20.867Z,10.20
2023-03-18T23:25:48.878Z,10.18
2023-03-18T23:28:16.912Z,10.16
2023-03-18T23:30:47.189Z,10.22
2023-03-18T23:33:14.649Z,10.14
2023-03-18T23:35:44.022Z,10.14
2023-03-18T23:38:11.508Z,10.18
2023-03-18T23:40:39.115Z,10.14
2023-03-18T23:43:08.836Z,10.16
2023-03-18T23:45:36.846Z,10.13
2023-03-18T23:48:04.595Z,10.13
2023-03-18T23:50:31.938Z,10.11
2023-03-18T23:53:00.952Z,10.04
2023-03-18T23:55:34.957Z,9.99
2023-03-18T23:58:03.086Z,10.04
